createdAt,value
2023-02-24T00:03:45.123Z,99401.16
2023-02-24T00:08:47.450Z,99398.66
2023-02-24T00:13:49.077Z,99391.09
2023-02-24T00:18:51.209Z,99389.38
2023-02-24T00:23:53.699Z,99381.84
2023-02-24T00:29:03.251Z,99375.09
2023-02-24T00:34:06.340Z,99370.97
2023-02-24T00:39:10.137Z,99365.97
2023-02-24T00:44:14.642Z,99364.25
2023-02-24T00:49:19.497Z,99345.78
2023-02-24T00:54:21.765Z,99348.28
2023-02-24T00:59:24.139Z,99341.59
2023-02-24T01:04:29.354Z,99340.72
2023-02-24T01:09:32.217Z,99339.06
2023-02-24T01:14:35.503Z,99327.31
2023-02-24T01:19:37.353Z,99318.94
2023-02-24T01:24:41.260Z,99321.47
2023-02-24T01:29:43.450Z,99320.59
2023-02-24T01:34:46.231Z,99311.41
2023-02-24T01:39:48.164Z,99305.56
2023-02-24T01:44:51.935Z,99308.88
2023-02-24T01:49:54.702Z,99303.00
2023-02-24T01:55:21.798Z,99294.59
2023-02-24T02:00:37.498Z,99281.19
2023-02-24T02:05:40.640Z,99279.53
2023-02-24T02:10:44.336Z,99277.00
2023-02-24T02:16:09.206Z,99280.28
2023-02-24T02:21:36.345Z,99272.63
2023-02-24T02:26:47.320Z,99275.94
2023-02-24T02:32:17.271Z,99282.63
2023-02-24T02:37:19.107Z,99281.72
2023-02-24T02:42:30.165Z,99277.56
2023-02-24T02:47:41.672Z,99284.28
2023-02-24T02:52:53.904Z,99274.25
2023-02-24T02:57:59.180Z,99270.13
2023-02-24T03:03:10.260Z,99274.28
2023-02-24T03:08:15.972Z,99264.25
2023-02-24T03:13:23.989Z,99264.25
2023-02-24T03:18:32.211Z,99254.19
2023-02-24T03:23:52.960Z,99248.22
2023-02-24T03:29:18.873Z,99254.00
2023-02-24T03:34:38.366Z,99245.53
2023-02-24T03:39:41.869Z,99252.06
2023-02-24T03:44:58.177Z,99237.72
2023-02-24T03:50:00.398Z,99249.38
2023-02-24T03:55:17.752Z,99250.22
2023-02-24T04:00:29.505Z,99248.56
2023-02-24T04:05:39.232Z,99239.28
2023-02-24T04:10:52.453Z,99235.78
2023-02-24T04:16:12.127Z,99240.91
2023-02-24T04:21:15.922Z,99230.88
2023-02-24T04:26:18.199Z,99238.38
2023-02-24T04:31:23.015Z,99228.38
2023-02-24T04:36:25.199Z,99234.25
2023-02-24T04:41:27.561Z,99225.06
2023-02-24T04:46:32.415Z,99214.25
2023-02-24T04:51:34.236Z,99206.72
2023-02-24T04:56:37.000Z,99203.44
2023-02-24T05:01:39.999Z,99198.41
2023-02-24T05:06:44.017Z,99190.94
2023-02-24T05:11:51.116Z,99182.56
2023-02-24T05:17:00.034Z,99184.25
2023-02-24T05:22:07.031Z,99174.22
2023-02-24T05:27:09.442Z,99180.06
2023-02-24T05:32:11.413Z,99170.00
2023-02-24T05:37:16.473Z,99172.50
2023-02-24T05:42:19.465Z,99157.44
2023-02-24T05:47:23.279Z,99157.44
2023-02-24T05:52:25.110Z,99166.53
2023-02-24T05:57:32.875Z,99169.84
2023-02-24T06:02:37.653Z,99168.19
2023-02-24T06:07:39.289Z,99159.00
2023-02-24T06:12:40.946Z,99153.97
2023-02-24T06:17:43.630Z,99148.97
2023-02-24T06:22:45.214Z,99145.66
2023-02-24T06:27:53.215Z,99152.31
2023-02-24T06:32:56.673Z,99143.97
2023-02-24T06:37:58.668Z,99138.09
2023-02-24T06:43:00.238Z,99151.47
2023-02-24T06:48:03.410Z,99144.81
2023-02-24T06:53:09.996Z,99147.38
2023-02-24T06:58:17.300Z,99149.13
2023-02-24T07:03:19.892Z,99147.53
2023-02-24T07:08:27.311Z,99136.75
2023-02-24T07:13:30.216Z,99138.56
2023-02-24T07:18:31.865Z,99127.78
2023-02-24T07:23:33.502Z,99133.72
2023-02-24T07:28:35.105Z,99139.63
2023-02-24T07:33:37.622Z,99128.84
2023-02-24T07:38:39.943Z,99128.06
2023-02-24T07:43:43.945Z,99129.81
2023-02-24T07:48:50.540Z,99117.25
2023-02-24T07:53:54.639Z,99129.06
2023-02-24T07:59:11.036Z,99107.34
2023-02-24T08:04:15.899Z,99102.38
2023-02-24T08:09:42.742Z,99103.25
2023-02-24T08:14:50.638Z,99095.69
2023-02-24T08:20:12.851Z,99083.06
2023-02-24T08:25:19.074Z,99068.69
2023-02-24T08:30:23.796Z,99071.09
2023-02-24T08:35:35.862Z,99060.06
2023-02-24T08:40:49.968Z,99059.13
2023-02-24T08:46:18.126Z,99052.34
2023-02-24T08:51:28.635Z,99053.09
2023-02-24T08:56:34.567Z,99042.84
2023-02-24T09:01:39.058Z,99033.38
2023-02-24T09:07:10.843Z,99027.16
2023-02-24T09:12:22.054Z,99024.25
2023-02-24T09:17:50.010Z,99022.28
2023-02-24T09:23:07.733Z,99011.88
2023-02-24T09:28:19.922Z,98999.16
2023-02-24T09:33:38.976Z,98988.06
2023-02-24T09:39:02.122Z,98994.50
2023-02-24T09:44:19.704Z,98994.16
2023-02-24T09:49:40.022Z,98974.50
2023-02-24T09:54:51.001Z,98972.47
2023-02-24T10:00:22.311Z,98971.44
2023-02-24T10:05:47.942Z,98956.88
2023-02-24T10:11:07.113Z,98959.13
2023-02-24T10:16:14.416Z,98942.19
2023-02-24T10:21:49.556Z,98917.84
2023-02-24T10:27:00.777Z,98918.69
2023-02-24T10:32:37.080Z,98900.88
2023-02-24T10:37:38.727Z,98894.69
2023-02-24T10:42:48.863Z,98891.03
2023-02-24T10:47:56.658Z,98880.72
2023-02-24T10:53:26.080Z,98870.44
2023-02-24T10:58:38.054Z,98852.34
2023-02-24T11:04:00.773Z,98840.47
2023-02-24T11:09:19.285Z,98837.31
2023-02-24T11:14:39.529Z,98814.19
2023-02-24T11:19:49.018Z,98806.50
2023-02-24T11:24:51.913Z,98797.38
2023-02-24T11:30:14.973Z,98777.94
2023-02-24T11:35:33.588Z,98763.97
2023-02-24T11:40:43.714Z,98761.25
2023-02-24T11:45:58.226Z,98764.13
2023-02-24T11:51:03.844Z,98759.66
2023-02-24T11:56:14.214Z,98743.63
2023-02-24T12:01:42.384Z,98734.00
2023-02-24T12:06:57.511Z,98718.75
2023-02-24T12:12:22.315Z,98708.53
2023-02-24T12:17:34.732Z,98701.97
2023-02-24T12:22:53.101Z,98681.16
2023-02-24T12:28:04.585Z,98668.66
2023-02-24T12:33:42.839Z,98667.94
2023-02-24T12:38:56.836Z,98656.69
2023-02-24T12:44:26.396Z,98656.06
2023-02-24T12:49:43.271Z,98647.31
2023-02-24T12:54:50.788Z,98629.28
2023-02-24T12:59:53.024Z,98621.91
2023-02-24T13:05:10.412Z,98606.00
2023-02-24T13:10:21.011Z,98606.78
2023-02-24T13:15:26.228Z,98597.69
2023-02-24T13:20:32.547Z,98588.03
2023-02-24T13:25:39.609Z,98584.72
2023-02-24T13:30:44.473Z,98576.53
2023-02-24T13:35:49.122Z,98574.19
2023-02-24T13:40:51.172Z,98571.56
2023-02-24T13:46:00.279Z,98573.59
2023-02-24T13:51:13.770Z,98569.31
2023-02-24T13:56:27.869Z,98567.59
2023-02-24T14:01:32.121Z,98567.59
2023-02-24T14:06:34.251Z,98565.00
2023-02-24T14:11:37.637Z,98555.25
2023-02-24T14:16:40.328Z,98547.00
2023-02-24T14:21:57.447Z,98541.84
2023-02-24T14:27:01.028Z,98542.75
2023-02-24T14:32:02.836Z,98534.69
2023-02-24T14:37:08.044Z,98530.72
2023-02-24T14:42:14.005Z,98537.53
2023-02-24T14:47:17.912Z,98530.81
2023-02-24T14:52:26.551Z,98530.66
2023-02-24T14:57:33.484Z,98524.03
2023-02-24T15:02:35.296Z,98519.31
2023-02-24T15:07:38.206Z,98503.34
2023-02-24T15:13:14.179Z,98496.50
2023-02-24T15:18:28.174Z,98489.94
2023-02-24T15:23:36.115Z,98485.13
2023-02-24T15:28:38.161Z,98482.59
2023-02-24T15:33:43.148Z,98477.91
2023-02-24T15:38:45.490Z,98481.50
2023-02-24T15:43:53.124Z,98473.28
2023-02-24T15:48:57.405Z,98466.84
2023-02-24T15:54:01.694Z,98451.84
2023-02-24T15:59:03.454Z,98451.19
2023-02-24T16:04:05.593Z,98442.13
2023-02-24T16:09:17.722Z,98431.44
2023-02-24T16:14:19.403Z,98424.13
2023-02-24T16:19:21.029Z,98425.31
2023-02-24T16:24:22.641Z,98424.69
2023-02-24T16:29:24.246Z,98414.81
2023-02-24T16:34:26.026Z,98398.34
2023-02-24T16:39:27.891Z,98391.06
2023-02-24T16:44:29.481Z,98384.53
2023-02-24T16:49:31.125Z,98371.38
2023-02-24T16:54:32.776Z,98375.91
2023-02-24T16:59:34.353Z,98370.44
2023-02-24T17:04:35.939Z,98375.81
2023-02-24T17:09:38.778Z,98369.97
2023-02-24T17:14:41.177Z,98364.28
2023-02-24T17:19:42.808Z,98364.38
2023-02-24T17:24:44.430Z,98376.34
2023-02-24T17:29:46.088Z,98363.00
2023-02-24T17:34:47.820Z,98369.00
2023-02-24T17:39:49.421Z,98374.28
2023-02-24T17:44:51.100Z,98384.47
2023-02-24T17:49:53.230Z,98382.13
2023-02-24T17:54:55.681Z,98385.78
2023-02-24T17:59:57.357Z,98385.16
2023-02-24T18:04:59.244Z,98378.56
2023-02-24T18:10:00.851Z,98375.16
2023-02-24T18:15:08.706Z,98375.97
2023-02-24T18:20:12.226Z,98373.69
2023-02-24T18:25:14.068Z,98367.13
2023-02-24T18:30:17.832Z,98356.97
2023-02-24T18:35:21.937Z,98345.16
2023-02-24T18:40:28.083Z,98336.00
2023-02-24T18:45:31.282Z,98341.22
2023-02-24T18:50:33.077Z,98325.41
2023-02-24T18:55:35.871Z,98321.59
2023-02-24T19:00:37.866Z,98323.19
2023-02-24T19:05:39.544Z,98318.09
2023-02-24T19:10:43.627Z,98313.09
2023-02-24T19:15:45.469Z,98299.75
2023-02-24T19:20:47.085Z,98292.16
2023-02-24T19:25:48.693Z,98288.00
2023-02-24T19:30:50.451Z,98284.50
2023-02-24T19:35:53.488Z,98277.91
2023-02-24T19:40:58.512Z,98275.41
2023-02-24T19:46:06.210Z,98285.47
2023-02-24T19:51:13.768Z,98287.13
2023-02-24T19:56:15.480Z,98287.91
2023-02-24T20:01:17.164Z,98288.53
2023-02-24T20:06:25.710Z,98286.81
2023-02-24T20:11:29.751Z,98288.50
2023-02-24T20:16:36.842Z,98276.81
2023-02-24T20:21:39.361Z,98272.63
2023-02-24T20:26:43.389Z,98278.59
2023-02-24T20:31:46.895Z,98269.34
2023-02-24T20:36:48.629Z,98256.97
2023-02-24T20:41:54.625Z,98247.06
2023-02-24T20:46:56.432Z,98240.56
2023-02-24T20:51:58.060Z,98240.69
2023-02-24T20:56:59.653Z,98230.06
2023-02-24T21:02:01.275Z,98217.66
2023-02-24T21:07:02.862Z,98228.81
2023-02-24T21:12:04.881Z,98218.16
2023-02-24T21:17:08.216Z,98204.91
2023-02-24T21:22:10.049Z,98201.66
2023-02-24T21:27:11.622Z,98197.78
2023-02-24T21:32:14.561Z,98181.69
2023-02-24T21:37:16.330Z,98192.72
2023-02-24T21:42:18.631Z,98198.69
2023-02-24T21:47:20.714Z,98177.66
2023-02-24T21:52:22.494Z,98171.03
2023-02-24T21:57:24.474Z,98116.50
2023-02-24T22:02:26.875Z,98165.16
2023-02-24T22:07:28.607Z,98136.81
2023-02-24T22:12:30.555Z,98161.78
2023-02-24T22:17:33.803Z,98144.16
2023-02-24T22:22:41.333Z,98141.84
2023-02-24T22:27:43.020Z,98144.19
2023-02-24T22:32:44.694Z,98119.06
2023-02-24T22:37:46.496Z,98106.56
2023-02-24T22:42:48.124Z,98116.63
2023-02-24T22:47:49.919Z,98114.00
2023-02-24T22:52:51.993Z,98088.78
2023-02-24T22:57:53.576Z,98088.72
2023-02-24T23:02:56.420Z,98077.91
2023-02-24T23:07:58.145Z,98062.88
2023-02-24T23:12:59.743Z,98067.00
2023-02-24T23:18:02.547Z,98074.59
2023-02-24T23:23:04.170Z,98071.38
2023-02-24T23:28:06.468Z,98076.34
2023-02-24T23:33:08.569Z,98085.63
2023-02-24T23:38:11.161Z,98076.56
2023-02-24T23:43:13.849Z,98069.00
2023-02-24T23:48:15.687Z,98049.72
2023-02-24T23:53:17.265Z,98044.63
2023-02-24T23:58:18.896Z,98058.88
